Time;durP1;ratioP1;P1;durP2;ratioP2;P2;SDS_P1;SDS_P2;PMS_P1;PMS_P2;Temp;Humidity;BMP_temperature;BMP_pressure;BME280_temperature;BME280_humidity;BME280_pressure;Samples;Min_cycle;Max_cycle;Signal;HPM_P1;HPM_P2
2022/10/29 00:01:46;;;;;;;37.30;9.77;;;14.30;99.90;;;;;;5058340;28;20452;-67
2022/10/29 00:04:12;;;;;;;38.53;8.23;;;14.40;99.90;;;;;;5044963;28;20467;-67
2022/10/29 00:06:38;;;;;;;40.83;10.18;;;14.30;99.90;;;;;;5058480;28;20021;-67
2022/10/29 00:09:04;;;;;;;33.33;7.60;;;14.30;99.90;;;;;;5061643;28;20033;-68
2022/10/29 00:11:33;;;;;;;38.65;7.05;;;14.30;99.90;;;;;;5048062;28;20096;-67
2022/10/29 00:14:00;;;;;;;33.10;7.57;;;14.20;99.90;;;;;;5057025;28;20029;-67
2022/10/29 00:16:32;;;;;;;36.38;7.13;;;14.30;99.90;;;;;;5064478;28;20108;-66
2022/10/29 00:19:03;;;;;;;25.75;6.72;;;14.30;99.90;;;;;;5060362;28;20033;-67
2022/10/29 00:21:36;;;;;;;31.38;6.45;;;14.30;99.90;;;;;;5062526;28;20056;-67
2022/10/29 00:24:03;;;;;;;29.17;5.50;;;14.30;99.90;;;;;;5065606;28;20380;-67
2022/10/29 00:26:29;;;;;;;33.20;6.82;;;14.20;99.90;;;;;;5063697;28;20017;-67
2022/10/29 00:28:55;;;;;;;32.22;5.65;;;14.20;99.90;;;;;;5052351;28;20124;-67
2022/10/29 00:31:23;;;;;;;28.88;6.20;;;14.20;99.90;;;;;;5055106;28;20025;-67
2022/10/29 00:33:49;;;;;;;30.05;5.72;;;14.20;99.90;;;;;;5055204;28;20047;-67
2022/10/29 00:36:18;;;;;;;38.42;5.88;;;14.10;99.90;;;;;;5055884;28;20040;-66
2022/10/29 00:38:44;;;;;;;35.33;6.43;;;14.10;99.90;;;;;;5047546;28;20029;-67
2022/10/29 00:41:13;;;;;;;30.40;5.93;;;14.10;99.90;;;;;;5034400;28;20025;-67
2022/10/29 00:43:42;;;;;;;33.00;5.43;;;14.10;99.90;;;;;;5041055;28;20041;-67
2022/10/29 00:46:12;;;;;;;35.35;6.65;;;14.10;99.90;;;;;;5048504;28;20033;-67
2022/10/29 00:48:51;;;;;;;27.13;5.57;;;14.10;99.90;;;;;;5038820;28;20021;-67
2022/10/29 00:51:18;;;;;;;33.53;6.75;;;14.10;99.90;;;;;;5048655;28;20473;-67
2022/10/29 00:53:49;;;;;;;35.05;6.45;;;14.00;99.90;;;;;;5053236;28;20376;-67
2022/10/29 00:56:16;;;;;;;32.53;6.43;;;14.00;99.90;;;;;;5053709;28;20354;-67
2022/10/29 00:58:42;;;;;;;30.08;5.47;;;14.00;99.90;;;;;;5049865;28;20018;-67
2022/10/29 01:01:08;;;;;;;31.45;6.13;;;14.00;99.90;;;;;;5040910;28;20378;-67
2022/10/29 01:03:34;;;;;;;37.22;6.30;;;14.00;99.90;;;;;;5038368;28;20025;-67
2022/10/29 01:06:02;;;;;;;39.20;6.47;;;14.00;99.90;;;;;;5033788;28;20044;-67
2022/10/29 01:08:27;;;;;;;40.35;6.95;;;14.00;99.90;;;;;;5035798;28;20022;-67
2022/10/29 01:11:21;;;;;;;43.88;6.93;;;14.00;99.90;;;;;;5040669;28;20035;-67
2022/10/29 01:14:13;;;;;;;37.95;7.95;;;13.90;99.90;;;;;;5039653;28;20518;-67
2022/10/29 01:16:58;;;;;;;32.60;7.20;;;13.90;99.90;;;;;;5047329;28;20033;-67
2022/10/29 01:19:45;;;;;;;33.97;6.78;;;13.80;99.90;;;;;;5038510;28;20028;-67
2022/10/29 01:22:29;;;;;;;30.45;6.72;;;13.80;99.90;;;;;;5054277;28;20049;-68
2022/10/29 01:25:35;;;;;;;34.05;8.02;;;13.80;99.90;;;;;;5054334;28;20040;-68
2022/10/29 01:28:29;;;;;;;29.70;7.47;;;13.70;99.90;;;;;;5054653;28;20029;-68
2022/10/29 01:31:09;;;;;;;34.50;8.25;;;13.60;99.90;;;;;;5049705;28;20067;-67
2022/10/29 01:33:54;;;;;;;31.90;8.57;;;13.60;99.90;;;;;;5054782;28;20029;-67
2022/10/29 01:36:47;;;;;;;34.65;9.30;;;13.50;99.90;;;;;;5050635;28;20045;-68
2022/10/29 01:39:28;;;;;;;39.58;9.90;;;13.50;99.90;;;;;;5053747;28;20016;-68
2022/10/29 01:42:11;;;;;;;38.92;11.38;;;13.40;99.90;;;;;;5054588;28;20104;-67
2022/10/29 01:44:47;;;;;;;42.78;12.48;;;13.40;99.90;;;;;;5050649;28;20079;-67
2022/10/29 01:47:18;;;;;;;50.88;12.57;;;13.30;99.90;;;;;;5053531;28;20469;-68
2022/10/29 01:49:52;;;;;;;47.63;13.75;;;13.30;99.90;;;;;;5053720;28;20021;-66
2022/10/29 01:52:20;;;;;;;46.83;16.23;;;13.30;99.90;;;;;;5054586;28;20052;-67
2022/10/29 01:54:46;;;;;;;60.05;17.75;;;13.30;99.90;;;;;;5049451;28;20025;-67
2022/10/29 01:57:24;;;;;;;51.03;16.83;;;13.30;99.90;;;;;;5045711;28;20076;-67
2022/10/29 01:59:51;;;;;;;60.95;20.00;;;13.30;99.90;;;;;;5052147;28;20036;-67
2022/10/29 02:02:30;;;;;;;63.58;20.33;;;13.30;99.90;;;;;;5053813;28;20025;-68
2022/10/29 02:05:31;;;;;;;44.10;15.82;;;13.30;99.90;;;;;;5047287;28;20025;-67
2022/10/29 02:08:11;;;;;;;63.10;19.65;;;13.30;99.90;;;;;;5045813;28;20025;-67
2022/10/29 02:10:52;;;;;;;63.10;19.27;;;13.30;99.90;;;;;;5039187;28;20029;-67
2022/10/29 02:13:23;;;;;;;73.65;20.83;;;13.40;99.90;;;;;;5034141;28;20037;-67
2022/10/29 02:15:53;;;;;;;63.88;19.48;;;13.40;99.90;;;;;;5044487;28;20136;-68
2022/10/29 02:18:19;;;;;;;73.13;21.13;;;13.40;99.90;;;;;;5053881;28;20029;-66
2022/10/29 02:20:45;;;;;;;88.72;21.50;;;13.40;99.90;;;;;;5052019;28;20090;-67
2022/10/29 02:23:13;;;;;;;107.45;22.77;;;13.40;99.90;;;;;;5053719;28;20090;-67
2022/10/29 02:25:38;;;;;;;103.78;23.75;;;13.40;99.90;;;;;;5052901;28;20029;-67
2022/10/29 02:28:04;;;;;;;104.45;23.35;;;13.40;99.90;;;;;;5053466;28;20025;-67
2022/10/29 02:30:30;;;;;;;92.40;22.90;;;13.40;99.90;;;;;;5046825;28;20030;-67
2022/10/29 02:32:55;;;;;;;103.47;22.90;;;13.50;99.90;;;;;;5053766;28;20052;-67
2022/10/29 02:35:21;;;;;;;76.28;19.63;;;13.50;99.90;;;;;;5050394;28;20481;-67
2022/10/29 02:37:47;;;;;;;83.10;20.25;;;13.50;99.90;;;;;;5047264;28;20037;-67
2022/10/29 02:40:13;;;;;;;79.68;20.25;;;13.50;99.90;;;;;;5035023;28;20021;-67
2022/10/29 02:42:38;;;;;;;112.70;24.23;;;13.50;99.90;;;;;;5049460;28;20021;-67
2022/10/29 02:45:05;;;;;;;121.88;25.15;;;13.50;99.90;;;;;;5032975;28;20068;-67
2022/10/29 02:47:30;;;;;;;121.57;25.75;;;13.50;99.90;;;;;;5034875;28;20028;-67
2022/10/29 02:49:56;;;;;;;133.55;24.38;;;13.60;99.90;;;;;;5051965;28;20029;-67
2022/10/29 02:52:21;;;;;;;98.50;21.58;;;13.60;99.90;;;;;;5052922;28;20013;-67
2022/10/29 02:54:47;;;;;;;91.85;21.33;;;13.60;99.90;;;;;;5033592;28;20413;-68
2022/10/29 02:57:13;;;;;;;107.85;21.20;;;13.60;99.90;;;;;;5032968;28;20033;-67
2022/10/29 02:59:38;;;;;;;83.15;21.25;;;13.60;99.90;;;;;;5050551;28;20027;-67
2022/10/29 03:02:04;;;;;;;92.03;20.42;;;13.50;99.90;;;;;;5053025;28;20060;-67
2022/10/29 03:04:30;;;;;;;71.05;19.63;;;13.50;99.90;;;;;;5036988;28;20086;-66
2022/10/29 03:06:55;;;;;;;104.07;21.63;;;13.50;99.90;;;;;;5052419;28;20759;-66
2022/10/29 03:09:21;;;;;;;99.22;22.05;;;13.40;99.90;;;;;;5037471;28;20469;-66
2022/10/29 03:11:47;;;;;;;105.45;21.58;;;13.50;99.90;;;;;;5032507;28;20027;-66
2022/10/29 03:14:13;;;;;;;97.50;21.55;;;13.50;99.90;;;;;;5045176;28;20025;-67
2022/10/29 03:16:38;;;;;;;83.00;20.00;;;13.50;99.90;;;;;;5052785;28;20024;-66
2022/10/29 03:19:04;;;;;;;89.47;21.83;;;13.50;99.90;;;;;;5041131;28;20037;-66
2022/10/29 03:21:29;;;;;;;89.78;24.08;;;13.50;99.90;;;;;;5048975;28;20057;-66
2022/10/29 03:23:55;;;;;;;89.00;22.13;;;13.60;99.90;;;;;;5042187;28;20026;-67
2022/10/29 03:26:20;;;;;;;81.60;21.08;;;13.60;99.90;;;;;;5032764;28;20029;-66
2022/10/29 03:28:46;;;;;;;70.05;21.80;;;13.70;99.90;;;;;;5039374;28;20449;-66
2022/10/29 03:31:11;;;;;;;67.60;21.25;;;13.70;99.90;;;;;;5052568;28;20017;-67
2022/10/29 03:33:37;;;;;;;66.05;20.70;;;13.70;99.90;;;;;;5046464;28;20365;-66
2022/10/29 03:36:05;;;;;;;60.90;19.63;;;13.80;99.90;;;;;;5047140;28;20029;-67
2022/10/29 03:38:31;;;;;;;65.90;21.05;;;13.80;99.90;;;;;;5047810;28;20033;-67
2022/10/29 03:40:56;;;;;;;58.50;19.50;;;13.80;99.90;;;;;;5031716;28;20037;-66
2022/10/29 03:43:22;;;;;;;58.22;19.88;;;13.80;99.90;;;;;;5043133;28;20108;-67
2022/10/29 03:45:53;;;;;;;41.80;16.92;;;13.80;99.90;;;;;;5052220;28;20106;-67
2022/10/29 03:48:19;;;;;;;62.08;18.15;;;13.80;99.90;;;;;;5041419;28;20476;-66
2022/10/29 03:51:00;;;;;;;45.13;16.67;;;13.80;99.90;;;;;;5045355;28;20032;-67
2022/10/29 03:53:26;;;;;;;42.83;16.10;;;13.80;99.90;;;;;;5041026;28;20030;-67
2022/10/29 03:55:53;;;;;;;39.88;16.42;;;13.80;99.90;;;;;;5032130;28;20462;-67
2022/10/29 03:58:19;;;;;;;42.38;17.27;;;13.80;99.90;;;;;;5032561;28;20397;-66
2022/10/29 04:00:58;;;;;;;37.88;16.75;;;13.80;99.90;;;;;;5038433;28;20105;-66
2022/10/29 04:03:24;;;;;;;37.97;15.43;;;13.90;99.90;;;;;;5032288;28;20017;-66
2022/10/29 04:05:50;;;;;;;41.00;15.93;;;13.90;99.90;;;;;;5041327;28;20081;-67
2022/10/29 04:08:15;;;;;;;36.47;15.07;;;13.90;99.90;;;;;;5032442;28;20021;-67
2022/10/29 04:10:46;;;;;;;35.83;16.02;;;13.90;99.90;;;;;;5039745;28;20465;-67
2022/10/29 04:13:12;;;;;;;35.67;16.02;;;13.90;99.90;;;;;;5052014;28;20052;-67
2022/10/29 04:15:38;;;;;;;35.35;16.95;;;13.90;99.90;;;;;;5038195;28;20104;-67
2022/10/29 04:18:04;;;;;;;34.53;15.35;;;13.90;99.90;;;;;;5032304;28;20469;-67
2022/10/29 04:20:30;;;;;;;41.17;16.45;;;13.90;99.90;;;;;;5035052;28;20416;-67
2022/10/29 04:22:55;;;;;;;32.67;15.38;;;13.90;99.90;;;;;;5035993;28;20028;-67
2022/10/29 04:25:21;;;;;;;38.05;16.52;;;13.90;99.90;;;;;;5051855;28;20017;-67
2022/10/29 04:27:46;;;;;;;36.88;16.92;;;13.90;99.90;;;;;;5047598;28;20053;-67
2022/10/29 04:30:12;;;;;;;35.97;16.23;;;13.90;99.90;;;;;;5046111;28;20054;-67
2022/10/29 04:32:37;;;;;;;38.03;16.65;;;13.90;99.90;;;;;;5032251;28;20365;-67
2022/10/29 04:35:03;;;;;;;37.35;16.13;;;13.90;99.90;;;;;;5050675;28;20017;-67
2022/10/29 04:37:29;;;;;;;40.75;17.20;;;13.90;99.90;;;;;;5051883;28;20037;-67
2022/10/29 04:39:55;;;;;;;38.63;16.38;;;13.90;99.90;;;;;;5031997;28;20040;-67
2022/10/29 04:42:20;;;;;;;36.85;16.30;;;13.90;99.90;;;;;;5032118;28;20063;-67
2022/10/29 04:44:46;;;;;;;36.22;17.05;;;13.90;99.90;;;;;;5048930;28;20025;-68
2022/10/29 04:47:12;;;;;;;38.05;15.98;;;13.90;99.90;;;;;;5051864;28;20067;-67
2022/10/29 04:49:37;;;;;;;37.83;16.63;;;14.00;99.90;;;;;;5043412;28;20507;-67
2022/10/29 04:52:03;;;;;;;40.17;16.42;;;14.00;99.90;;;;;;5050785;28;20052;-67
2022/10/29 04:54:28;;;;;;;37.78;15.95;;;13.90;99.90;;;;;;5055601;28;20024;-67
2022/10/29 04:56:54;;;;;;;30.92;14.68;;;13.90;99.90;;;;;;5047830;28;20091;-67
2022/10/29 04:59:20;;;;;;;35.50;15.18;;;13.90;99.90;;;;;;5040403;28;20021;-66
2022/10/29 05:01:45;;;;;;;38.25;16.88;;;14.00;99.90;;;;;;5050033;28;20461;-67
2022/10/29 05:04:11;;;;;;;37.67;16.25;;;14.00;99.90;;;;;;5035258;28;20044;-66
2022/10/29 05:06:36;;;;;;;36.55;17.30;;;14.00;99.90;;;;;;5038416;28;20138;-67
2022/10/29 05:09:02;;;;;;;32.78;14.93;;;14.00;99.90;;;;;;5047316;28;20111;-66
2022/10/29 05:11:28;;;;;;;37.95;16.73;;;14.00;99.90;;;;;;5035172;28;20025;-67
2022/10/29 05:13:53;;;;;;;81.45;24.05;;;14.00;99.90;;;;;;5035148;28;20030;-67
2022/10/29 05:16:19;;;;;;;266.70;41.72;;;14.00;99.90;;;;;;5054596;28;20017;-67
2022/10/29 05:18:44;;;;;;;46.95;17.55;;;14.00;99.90;;;;;;5035879;28;20029;-66
2022/10/29 05:21:10;;;;;;;49.92;17.80;;;14.00;99.90;;;;;;5038644;28;20070;-66
2022/10/29 05:23:35;;;;;;;36.17;17.77;;;14.00;99.90;;;;;;5054230;28;20036;-66
2022/10/29 05:26:01;;;;;;;43.90;16.88;;;14.00;99.90;;;;;;5053460;28;20024;-66
2022/10/29 05:28:27;;;;;;;42.80;18.00;;;14.00;99.90;;;;;;5038344;28;20461;-66
2022/10/29 05:30:53;;;;;;;35.78;16.83;;;14.00;99.90;;;;;;5035101;28;20021;-66
2022/10/29 05:33:23;;;;;;;35.38;17.25;;;14.00;99.90;;;;;;5034412;28;20373;-66
2022/10/29 05:35:49;;;;;;;40.25;17.63;;;14.00;99.90;;;;;;5035049;28;20068;-66
2022/10/29 05:38:15;;;;;;;40.47;17.35;;;14.00;99.90;;;;;;5036031;28;20116;-66
2022/10/29 05:40:43;;;;;;;40.35;18.95;;;14.00;99.90;;;;;;5037104;28;20108;-66
2022/10/29 05:43:10;;;;;;;37.38;17.15;;;14.00;99.90;;;;;;5042357;28;20025;-66
2022/10/29 05:45:35;;;;;;;33.15;17.77;;;14.00;99.90;;;;;;5034433;28;20388;-66
2022/10/29 05:48:03;;;;;;;39.22;17.73;;;14.00;99.90;;;;;;5045112;28;20108;-66
2022/10/29 05:50:29;;;;;;;38.28;18.27;;;14.00;99.90;;;;;;5050358;28;20116;-66
2022/10/29 05:52:57;;;;;;;38.10;18.80;;;14.00;99.90;;;;;;5038272;28;20112;-67
2022/10/29 05:55:25;;;;;;;41.00;19.00;;;14.10;99.90;;;;;;5039616;28;20113;-67
2022/10/29 05:57:55;;;;;;;154.48;27.17;;;14.00;99.90;;;;;;5037512;28;20445;-67
2022/10/29 06:00:21;;;;;;;40.75;20.02;;;14.00;99.90;;;;;;5036706;28;20018;-67
2022/10/29 06:02:46;;;;;;;43.40;19.45;;;14.00;99.90;;;;;;5050592;28;20109;-66
2022/10/29 06:05:12;;;;;;;35.10;18.90;;;14.00;99.90;;;;;;5033458;28;20022;-67
2022/10/29 06:07:37;;;;;;;41.17;18.80;;;14.00;99.90;;;;;;5035214;28;20021;-66
2022/10/29 06:10:03;;;;;;;43.95;20.35;;;14.00;99.90;;;;;;5052146;28;20033;-67
2022/10/29 06:12:32;;;;;;;37.50;19.48;;;14.00;99.90;;;;;;5039779;28;20029;-67
2022/10/29 06:14:59;;;;;;;43.60;19.83;;;14.00;99.90;;;;;;5034160;28;20096;-66
2022/10/29 06:17:24;;;;;;;40.47;20.45;;;14.00;99.90;;;;;;5046819;28;20532;-66
2022/10/29 06:19:50;;;;;;;44.80;20.40;;;14.00;99.90;;;;;;5037669;28;20116;-67
2022/10/29 06:22:16;;;;;;;39.95;20.83;;;14.00;99.90;;;;;;5042399;28;20064;-66
2022/10/29 06:24:41;;;;;;;44.42;20.95;;;14.10;99.90;;;;;;5036326;28;20029;-66
2022/10/29 06:27:07;;;;;;;42.58;19.90;;;14.00;99.90;;;;;;5052662;28;20041;-66
2022/10/29 06:29:32;;;;;;;38.97;20.23;;;14.10;99.90;;;;;;5052454;28;20048;-67
2022/10/29 06:31:58;;;;;;;41.90;21.25;;;14.10;99.90;;;;;;5041846;28;20025;-67
2022/10/29 06:34:23;;;;;;;39.45;20.90;;;14.10;99.90;;;;;;5036049;28;20561;-67
2022/10/29 06:36:50;;;;;;;40.22;20.83;;;14.10;99.90;;;;;;5039526;28;20047;-66
2022/10/29 06:39:15;;;;;;;42.80;20.70;;;14.10;99.90;;;;;;5053748;28;20126;-67
2022/10/29 06:41:41;;;;;;;37.78;21.00;;;14.10;99.90;;;;;;5047643;28;20049;-67
2022/10/29 06:44:06;;;;;;;36.92;19.25;;;14.10;99.90;;;;;;5042615;28;20032;-66
2022/10/29 06:46:33;;;;;;;42.45;20.20;;;14.10;99.90;;;;;;5034257;28;20026;-67
2022/10/29 06:48:59;;;;;;;39.35;19.88;;;14.10;99.90;;;;;;5033708;28;20029;-67
2022/10/29 06:51:25;;;;;;;44.10;19.42;;;14.10;99.90;;;;;;5048769;28;20028;-67
2022/10/29 06:53:52;;;;;;;41.65;20.10;;;14.10;99.90;;;;;;5053169;28;20349;-67
2022/10/29 06:56:19;;;;;;;38.65;19.88;;;14.10;99.90;;;;;;5037744;28;20036;-67
2022/10/29 06:58:44;;;;;;;39.03;19.58;;;14.20;99.90;;;;;;5045642;28;20044;-67
2022/10/29 07:01:10;;;;;;;37.45;19.23;;;14.20;99.90;;;;;;5056959;28;20037;-67
2022/10/29 07:03:35;;;;;;;38.38;19.45;;;14.20;99.90;;;;;;5058830;28;20021;-67
2022/10/29 07:06:01;;;;;;;33.10;17.55;;;14.30;99.90;;;;;;5056691;28;20062;-67
2022/10/29 07:08:27;;;;;;;38.70;18.38;;;14.40;99.90;;;;;;5053012;28;20074;-67
2022/10/29 07:10:53;;;;;;;31.13;18.50;;;14.40;99.90;;;;;;5051116;28;20025;-67
2022/10/29 07:13:19;;;;;;;32.72;17.90;;;14.40;99.90;;;;;;5053076;28;20041;-66
2022/10/29 07:15:45;;;;;;;30.13;16.10;;;14.50;99.90;;;;;;5051877;28;20078;-67
2022/10/29 07:18:11;;;;;;;31.45;16.23;;;14.50;99.90;;;;;;5052514;28;20482;-67
2022/10/29 07:20:42;;;;;;;34.45;16.67;;;14.60;99.90;;;;;;5038154;28;20025;-67
2022/10/29 07:23:08;;;;;;;31.38;16.30;;;14.60;99.90;;;;;;5048884;28;20033;-67
2022/10/29 07:25:35;;;;;;;28.40;15.95;;;14.60;99.90;;;;;;5049550;28;20095;-67
2022/10/29 07:28:10;;;;;;;31.33;15.98;;;14.70;99.90;;;;;;5051325;28;20029;-67
2022/10/29 07:30:35;;;;;;;29.80;17.15;;;14.80;99.90;;;;;;5049858;28;20120;-66
2022/10/29 07:33:01;;;;;;;34.47;17.27;;;14.80;99.90;;;;;;5052785;28;20147;-66
2022/10/29 07:35:27;;;;;;;31.73;16.65;;;14.90;99.90;;;;;;5051635;28;20021;-67
2022/10/29 07:37:58;;;;;;;32.78;17.48;;;14.90;99.90;;;;;;5052563;28;20049;-66
2022/10/29 07:40:23;;;;;;;32.78;17.85;;;15.00;99.90;;;;;;5050558;28;20025;-66
2022/10/29 07:42:51;;;;;;;33.30;16.50;;;15.00;99.90;;;;;;5052356;28;20029;-68
2022/10/29 07:45:17;;;;;;;30.58;16.40;;;15.10;99.90;;;;;;5048724;28;20352;-68
2022/10/29 07:47:42;;;;;;;33.20;16.40;;;15.20;99.90;;;;;;5032233;28;20100;-67
2022/10/29 07:50:08;;;;;;;33.75;16.90;;;15.20;99.90;;;;;;5038180;28;21666;-67
2022/10/29 07:52:34;;;;;;;32.97;16.88;;;15.30;99.90;;;;;;5052461;28;20017;-67
2022/10/29 07:55:01;;;;;;;31.35;18.08;;;15.40;99.90;;;;;;5042733;28;20032;-67
2022/10/29 07:57:27;;;;;;;32.05;17.02;;;15.40;99.90;;;;;;5036179;28;20044;-66
2022/10/29 07:59:53;;;;;;;32.03;17.55;;;15.40;99.90;;;;;;5050795;28;20444;-67
2022/10/29 08:02:18;;;;;;;40.83;18.88;;;15.40;99.90;;;;;;5032073;28;20051;-67
2022/10/29 08:04:44;;;;;;;38.08;18.35;;;15.50;99.90;;;;;;5034134;28;20090;-67
2022/10/29 08:07:09;;;;;;;50.85;18.13;;;15.50;99.90;;;;;;5052070;28;20107;-67
2022/10/29 08:09:35;;;;;;;34.00;18.10;;;15.60;99.90;;;;;;5047932;28;20520;-67
2022/10/29 08:12:01;;;;;;;37.20;18.23;;;15.60;99.90;;;;;;5039151;28;20058;-67
2022/10/29 08:14:29;;;;;;;34.42;17.17;;;15.70;99.90;;;;;;5045586;28;20030;-67
2022/10/29 08:16:55;;;;;;;31.77;16.50;;;15.80;99.90;;;;;;5032342;28;20132;-67
2022/10/29 08:19:21;;;;;;;32.50;16.80;;;15.80;99.90;;;;;;5031969;28;20406;-67
2022/10/29 08:21:47;;;;;;;34.53;15.98;;;15.90;99.90;;;;;;5050936;28;20051;-67
2022/10/29 08:24:12;;;;;;;28.25;15.48;;;16.10;99.90;;;;;;5035041;28;20457;-67
2022/10/29 08:26:38;;;;;;;26.15;13.70;;;16.20;99.90;;;;;;5052080;28;20342;-67
2022/10/29 08:29:04;;;;;;;28.02;13.35;;;16.30;99.90;;;;;;5056084;28;20040;-67
2022/10/29 08:31:29;;;;;;;26.25;12.52;;;16.50;99.90;;;;;;5045402;28;20021;-66
2022/10/29 08:33:55;;;;;;;24.85;11.80;;;16.60;99.90;;;;;;5054626;28;20033;-67
2022/10/29 08:36:20;;;;;;;23.55;11.70;;;16.70;99.90;;;;;;5052466;28;20044;-67
2022/10/29 08:38:46;;;;;;;24.13;11.73;;;16.80;99.90;;;;;;5055702;28;20061;-67
2022/10/29 08:41:35;;;;;;;20.33;10.60;;;17.00;99.90;;;;;;5054926;28;20031;-67
2022/10/29 08:44:00;;;;;;;23.85;11.55;;;17.10;99.90;;;;;;5053231;28;20037;-67
2022/10/29 08:46:45;;;;;;;21.52;10.00;;;17.30;99.90;;;;;;5052816;28;20032;-67
2022/10/29 08:49:18;;;;;;;25.10;11.15;;;17.50;99.90;;;;;;5044574;28;20025;-68
2022/10/29 08:51:58;;;;;;;23.48;10.90;;;17.70;99.90;;;;;;5054522;28;20017;-67
2022/10/29 08:54:27;;;;;;;24.08;10.52;;;17.90;99.90;;;;;;5049770;28;20025;-67
2022/10/29 08:56:57;;;;;;;30.52;12.85;;;18.00;99.90;;;;;;5037428;28;20048;-67
2022/10/29 08:59:25;;;;;;;25.17;11.18;;;18.20;99.90;;;;;;5047965;28;20112;-67
2022/10/29 09:01:52;;;;;;;27.50;10.32;;;18.30;99.90;;;;;;5040505;28;20358;-67
2022/10/29 09:04:23;;;;;;;21.27;10.85;;;18.40;99.90;;;;;;5046913;28;20042;-67
2022/10/29 09:07:08;;;;;;;22.52;10.65;;;18.60;99.90;;;;;;5053426;28;20108;-67
2022/10/29 09:09:40;;;;;;;21.92;10.57;;;18.80;99.90;;;;;;5051212;28;20128;-67
2022/10/29 09:12:20;;;;;;;23.10;11.18;;;18.90;99.90;;;;;;5036331;28;20503;-67
2022/10/29 09:15:04;;;;;;;21.67;10.65;;;19.00;99.90;;;;;;5046433;28;20033;-67
2022/10/29 09:17:44;;;;;;;23.98;10.90;;;19.20;99.90;;;;;;5055293;28;20494;-67
2022/10/29 09:20:21;;;;;;;24.73;12.43;;;19.30;99.90;;;;;;5036092;28;20029;-67
2022/10/29 09:23:06;;;;;;;23.20;12.00;;;19.30;99.90;;;;;;5034795;28;20441;-67
2022/10/29 09:25:52;;;;;;;22.08;11.25;;;19.30;99.90;;;;;;5040365;28;20041;-67
2022/10/29 09:28:46;;;;;;;27.25;11.75;;;19.40;99.90;;;;;;5053152;28;20048;-67
2022/10/29 09:31:18;;;;;;;27.05;11.65;;;19.60;99.90;;;;;;5059966;28;20068;-67
2022/10/29 09:33:47;;;;;;;24.52;10.32;;;19.70;99.90;;;;;;5037289;28;20454;-67
2022/10/29 09:36:19;;;;;;;21.83;10.50;;;19.80;99.90;;;;;;5044424;28;20065;-67
2022/10/29 09:38:57;;;;;;;24.52;10.95;;;19.90;99.90;;;;;;5053757;28;20178;-67
2022/10/29 09:41:29;;;;;;;25.20;12.35;;;19.90;99.90;;;;;;5047785;28;20044;-67
2022/10/29 09:44:03;;;;;;;28.92;12.95;;;19.80;99.90;;;;;;5049849;28;20025;-68
2022/10/29 09:46:48;;;;;;;28.25;12.40;;;19.80;99.90;;;;;;5048356;28;20029;-67
2022/10/29 09:50:04;;;;;;;24.20;12.90;;;19.70;99.90;;;;;;5038439;28;20358;-66
2022/10/29 09:52:34;;;;;;;29.52;12.65;;;19.80;99.90;;;;;;5029911;28;20025;-66
2022/10/29 09:55:05;;;;;;;27.60;13.45;;;19.90;99.90;;;;;;5020870;28;20030;-67
2022/10/29 09:57:35;;;;;;;25.63;12.70;;;19.90;99.90;;;;;;5038112;28;20373;-67
2022/10/29 10:00:01;;;;;;;27.90;12.38;;;20.00;99.90;;;;;;5053213;28;20067;-66
2022/10/29 10:02:36;;;;;;;24.67;11.30;;;20.60;99.90;;;;;;5048910;28;20028;-67
2022/10/29 10:05:11;;;;;;;21.75;11.32;;;21.30;99.90;;;;;;5045772;28;20021;-67
2022/10/29 10:07:36;;;;;;;25.30;11.18;;;22.30;99.90;;;;;;5043454;28;20124;-66
2022/10/29 10:10:05;;;;;;;22.70;9.32;;;23.50;99.90;;;;;;5035222;28;20117;-67
2022/10/29 10:12:37;;;;;;;21.75;10.15;;;24.60;99.90;;;;;;5047593;28;20041;-67
2022/10/29 10:15:14;;;;;;;24.20;10.07;;;25.60;99.90;;;;;;5039630;28;20037;-67
2022/10/29 10:18:03;;;;;;;25.25;10.02;;;26.50;99.90;;;;;;5053099;28;20028;-68
2022/10/29 10:20:41;;;;;;;23.83;10.23;;;27.50;99.90;;;;;;5034079;28;20021;-67
2022/10/29 10:23:27;;;;;;;20.90;10.02;;;28.30;99.90;;;;;;5037641;28;20017;-68
2022/10/29 10:25:56;;;;;;;21.05;8.48;;;28.90;99.40;;;;;;5049811;28;20392;-67
2022/10/29 10:28:26;;;;;;;21.42;9.88;;;29.20;98.20;;;;;;5053593;28;20031;-67
2022/10/29 10:31:09;;;;;;;15.80;8.32;;;29.50;97.70;;;;;;5060070;28;20139;-67
2022/10/29 10:33:42;;;;;;;20.05;8.75;;;29.60;97.10;;;;;;5043837;28;20033;-67
2022/10/29 10:36:12;;;;;;;20.17;9.32;;;29.50;97.20;;;;;;5048530;28;20163;-68
2022/10/29 10:38:43;;;;;;;15.60;7.90;;;29.50;96.90;;;;;;5048868;28;20134;-67
2022/10/29 10:41:12;;;;;;;18.38;8.05;;;29.50;96.90;;;;;;5042809;28;20024;-67
2022/10/29 10:43:45;;;;;;;19.52;8.18;;;29.60;96.90;;;;;;5051814;28;20487;-68
2022/10/29 10:46:33;;;;;;;22.30;8.55;;;29.80;96.40;;;;;;5047586;28;20338;-67
2022/10/29 10:49:09;;;;;;;18.35;7.45;;;30.10;96.40;;;;;;5038790;28;20025;-67
2022/10/29 10:51:38;;;;;;;16.85;6.85;;;30.30;95.60;;;;;;5045405;28;20031;-67
2022/10/29 10:54:28;;;;;;;15.90;6.88;;;29.90;95.70;;;;;;5048088;28;20409;-67
2022/10/29 10:56:58;;;;;;;18.52;6.97;;;29.50;95.70;;;;;;5044685;28;20396;-67
2022/10/29 10:59:32;;;;;;;18.02;7.15;;;29.20;96.30;;;;;;5043309;28;20108;-67
2022/10/29 11:01:59;;;;;;;17.83;6.88;;;28.70;96.50;;;;;;5052940;28;20558;-67
2022/10/29 11:04:33;;;;;;;16.08;6.03;;;28.00;97.10;;;;;;5051300;28;20111;-67
2022/10/29 11:07:04;;;;;;;14.50;6.25;;;27.40;97.70;;;;;;5053027;28;20025;-67
2022/10/29 11:09:35;;;;;;;14.38;5.90;;;26.70;98.30;;;;;;5052730;28;20029;-66
2022/10/29 11:12:26;;;;;;;15.93;6.03;;;26.00;99.20;;;;;;5052445;28;20024;-67
2022/10/29 11:14:58;;;;;;;15.98;6.30;;;25.50;99.90;;;;;;5049891;28;20461;-66
2022/10/29 11:17:35;;;;;;;17.30;7.03;;;25.00;99.90;;;;;;5038669;28;20080;-67
2022/10/29 11:20:07;;;;;;;15.82;5.70;;;24.60;99.90;;;;;;5038514;28;20079;-67
2022/10/29 11:22:37;;;;;;;;;;;24.40;99.90;;;;;;5051989;28;20029;-67
2022/10/29 11:25:03;;;;;;;15.98;7.07;;;24.50;99.90;;;;;;5038596;28;20300;-67
2022/10/29 11:27:52;;;;;;;17.52;6.65;;;24.40;99.90;;;;;;5047395;28;20032;-67
2022/10/29 11:30:19;;;;;;;15.50;7.03;;;24.10;99.90;;;;;;5041503;28;20067;-67
2022/10/29 11:32:59;;;;;;;18.45;7.22;;;23.90;99.90;;;;;;5051045;28;20021;-67
2022/10/29 11:35:53;;;;;;;15.68;6.90;;;23.70;99.90;;;;;;5033068;28;20026;-66
2022/10/29 11:38:30;;;;;;;16.95;6.82;;;23.50;99.90;;;;;;5042426;28;20033;-67
2022/10/29 11:41:18;;;;;;;19.40;7.80;;;23.30;99.90;;;;;;5038046;28;20120;-67
2022/10/29 11:43:46;;;;;;;16.85;6.60;;;23.30;99.90;;;;;;5045402;28;20606;-66
2022/10/29 11:46:31;;;;;;;19.02;8.07;;;23.50;99.90;;;;;;5050044;28;20048;-66
2022/10/29 11:48:59;;;;;;;18.48;6.93;;;23.60;99.90;;;;;;5038953;28;20488;-66
2022/10/29 11:52:01;;;;;;;19.88;8.25;;;23.50;99.90;;;;;;5050890;28;20028;-66
2022/10/29 11:54:36;;;;;;;15.95;7.03;;;23.30;99.90;;;;;;5027060;28;20047;-66
2022/10/29 11:57:15;;;;;;;19.90;7.05;;;23.30;99.90;;;;;;5042060;28;20068;-66
2022/10/29 12:00:06;;;;;;;17.27;7.55;;;23.20;99.90;;;;;;5051166;28;20035;-67
2022/10/29 12:02:45;;;;;;;23.13;7.70;;;23.20;99.90;;;;;;5046130;28;20021;-66
2022/10/29 12:05:36;;;;;;;20.30;7.20;;;23.20;99.90;;;;;;5056096;28;20017;-67
2022/10/29 12:08:26;;;;;;;19.73;7.50;;;23.50;99.90;;;;;;5060161;28;20045;-67
2022/10/29 12:11:09;;;;;;;18.35;7.57;;;23.60;99.90;;;;;;5056244;28;20053;-67
2022/10/29 12:13:54;;;;;;;21.60;7.78;;;23.70;99.90;;;;;;5055951;28;20037;-67
2022/10/29 12:16:32;;;;;;;17.55;6.63;;;23.80;99.90;;;;;;5052708;28;20106;-67
2022/10/29 12:19:16;;;;;;;21.58;6.85;;;23.80;99.90;;;;;;5053558;28;20025;-66
2022/10/29 12:21:55;;;;;;;23.50;7.22;;;23.80;99.90;;;;;;5054515;28;20028;-66
2022/10/29 12:24:45;;;;;;;14.93;6.60;;;23.80;99.90;;;;;;5056693;28;20017;-66
2022/10/29 12:27:25;;;;;;;16.17;6.72;;;23.70;99.90;;;;;;5059174;28;20437;-66
2022/10/29 12:30:00;;;;;;;17.30;6.78;;;23.60;99.90;;;;;;5055753;28;20040;-69
2022/10/29 12:32:50;;;;;;;18.73;6.00;;;23.50;99.90;;;;;;5054556;28;20017;-66
2022/10/29 12:35:31;;;;;;;17.10;6.22;;;23.40;99.90;;;;;;5054758;28;20345;-66
2022/10/29 12:38:17;;;;;;;18.48;5.75;;;23.50;99.90;;;;;;5061744;28;20050;-66
2022/10/29 12:40:47;;;;;;;20.23;7.13;;;23.50;99.90;;;;;;5057689;28;20024;-67
2022/10/29 12:43:34;;;;;;;14.35;6.50;;;23.50;99.90;;;;;;5058666;28;20017;-67
2022/10/29 12:46:06;;;;;;;16.70;6.13;;;23.50;99.90;;;;;;5049156;28;20025;-67
2022/10/29 12:49:03;;;;;;;18.45;6.05;;;23.50;99.90;;;;;;5047189;28;20496;-66
2022/10/29 12:51:40;;;;;;;15.65;6.03;;;23.60;99.90;;;;;;5043224;28;20037;-67